Time,TemperatureF,DewpointF,PressureIn,WindDirection,WindDirectionDegrees,WindSpeedMPH,WindSpeedGustMPH,Humidity,HourlyPrecipIn,Conditions,Clouds,dailyrainin,SoftwareType,DateUTC
2013-06-15 00:01:00,72.0,53.4,29.94,ESE,112,0.0,0.0,52,0.00,,,0.00,VWS V14.01,2013-06-15 05:01:00,
2013-06-15 00:06:00,71.8,53.2,29.94,ESE,112,0.0,0.0,52,0.00,,,0.00,VWS V14.01,2013-06-15 05:06:00,
2013-06-15 00:15:00,71.8,53.2,29.94,ESE,112,0.0,0.0,52,0.00,,,0.00,VWS V14.01,2013-06-15 05:15:00,
2013-06-15 00:20:00,72.0,52.9,29.94,ESE,112,0.0,0.0,51,0.00,,,0.00,VWS V14.01,2013-06-15 05:20:00,
2013-06-15 00:25:00,72.0,52.9,29.97,ESE,112,0.0,0.0,51,0.00,,,0.00,VWS V14.01,2013-06-15 05:25:00,
2013-06-15 00:30:00,71.8,52.7,29.97,ESE,112,0.0,0.0,51,0.00,,,0.00,VWS V14.01,2013-06-15 05:30:00,
2013-06-15 00:35:00,71.8,52.7,29.97,ESE,112,0.0,0.0,51,0.00,,,0.00,VWS V14.01,2013-06-15 05:35:00,
2013-06-15 00:40:00,71.8,52.7,29.97,ESE,112,0.0,0.0,51,0.00,,,0.00,VWS V14.01,2013-06-15 05:40:00,
2013-06-15 00:45:00,71.8,52.7,29.97,ESE,112,0.0,0.0,51,0.00,,,0.00,VWS V14.01,2013-06-15 05:45:00,
2013-06-15 00:50:00,71.8,52.7,29.97,ESE,112,0.0,0.0,51,0.00,,,0.00,VWS V14.01,2013-06-15 05:50:00,
2013-06-15 00:55:00,71.6,52.0,29.97,ESE,112,0.0,0.0,50,0.00,,,0.00,VWS V14.01,2013-06-15 05:55:00,
2013-06-15 01:00:00,71.6,52.0,29.97,ESE,112,0.0,0.0,50,0.00,,,0.00,VWS V14.01,2013-06-15 06:00:00,
2013-06-15 01:05:00,71.6,52.0,29.97,ESE,112,0.0,0.0,50,0.00,,,0.00,VWS V14.01,2013-06-15 06:05:00,
2013-06-15 01:10:00,71.4,52.4,29.97,ESE,112,0.0,0.0,51,0.00,,,0.00,VWS V14.01,2013-06-15 06:10:00,
2013-06-15 01:15:00,71.2,52.2,29.97,ESE,112,0.0,0.0,51,0.00,,,0.00,VWS V14.01,2013-06-15 06:15:00,
2013-06-15 01:20:00,71.2,52.7,29.97,ESE,112,0.0,0.0,52,0.00,,,0.00,VWS V14.01,2013-06-15 06:20:00,
2013-06-15 01:26:00,71.2,52.7,29.97,ESE,112,0.0,0.0,52,0.00,,,0.00,VWS V14.01,2013-06-15 06:26:00,
2013-06-15 01:31:00,71.1,52.6,29.97,ESE,112,0.0,0.0,52,0.00,,,0.00,VWS V14.01,2013-06-15 06:31:00,
2013-06-15 01:36:00,70.9,52.9,29.97,ESE,112,0.0,0.0,53,0.00,,,0.00,VWS V14.01,2013-06-15 06:36:00,
2013-06-15 01:41:00,70.7,52.8,29.97,ESE,112,0.0,0.0,53,0.00,,,0.00,VWS V14.01,2013-06-15 06:41:00,
2013-06-15 01:46:00,70.7,52.8,29.97,ESE,112,0.0,0.0,53,0.00,,,0.00,VWS V14.01,2013-06-15 06:46:00,
2013-06-15 01:51:00,70.7,52.2,29.97,ESE,112,0.0,0.0,52,0.00,,,0.00,VWS V14.01,2013-06-15 06:51:00,
2013-06-15 01:56:00,70.7,52.8,29.97,ESE,112,0.0,0.0,53,0.00,,,0.00,VWS V14.01,2013-06-15 06:56:00,
2013-06-15 02:01:00,70.7,52.8,29.97,ESE,112,0.0,0.0,53,0.00,,,0.00,VWS V14.01,2013-06-15 07:01:00,
2013-06-15 02:06:00,70.7,52.2,29.97,ESE,112,0.0,0.0,52,0.00,,,0.00,VWS V14.01,2013-06-15 07:06:00,
2013-06-15 02:11:00,70.7,52.2,29.97,ESE,112,0.0,0.0,52,0.00,,,0.00,VWS V14.01,2013-06-15 07:11:00,
2013-06-15 02:16:00,70.9,51.9,29.97,ESE,112,0.0,0.0,51,0.00,,,0.00,VWS V14.01,2013-06-15 07:16:00,
2013-06-15 02:21:00,70.9,51.9,29.97,ESE,112,0.0,0.0,51,0.00,,,0.00,VWS V14.01,2013-06-15 07:21:00,
2013-06-15 02:26:00,71.1,51.5,29.97,ESE,112,0.0,0.0,50,0.00,,,0.00,VWS V14.01,2013-06-15 07:26:00,
2013-06-15 02:31:00,71.1,51.5,29.97,SSE,158,0.0,0.0,50,0.00,,,0.00,VWS V14.01,2013-06-15 07:31:00,
2013-06-15 04:32:00,71.1,51.5,29.97,SSE,158,0.0,0.0,50,0.00,,,0.00,VWS V14.01,2013-06-15 09:32:00,
2013-06-15 04:37:00,66.9,64.8,30.00,ENE,68,0.0,0.0,93,0.13,,,0.13,VWS V14.01,2013-06-15 09:37:00,
2013-06-15 04:42:00,66.9,64.8,30.00,ENE,68,0.0,0.0,93,0.13,,,0.13,VWS V14.01,2013-06-15 09:42:00,
2013-06-15 04:47:00,66.9,64.8,30.00,East,90,0.0,0.0,93,0.13,,,0.13,VWS V14.01,2013-06-15 09:47:00,
2013-06-15 04:52:00,66.9,65.1,30.00,South,180,0.0,0.0,94,0.13,,,0.13,VWS V14.01,2013-06-15 09:52:00,
2013-06-15 04:57:00,66.9,65.1,30.00,SSE,158,0.0,0.0,94,0.13,,,0.13,VWS V14.01,2013-06-15 09:57:00,
2013-06-15 05:02:00,66.9,65.4,30.00,South,180,0.0,0.0,95,0.13,,,0.13,VWS V14.01,2013-06-15 10:02:00,
2013-06-15 07:02:00,66.9,65.4,30.00,South,180,4.0,4.0,95,0.00,,,0.13,VWS V14.01,2013-06-15 12:02:00,
2013-06-15 07:07:00,68.5,64.8,29.94,South,180,0.0,0.0,88,0.00,,,0.13,VWS V14.01,2013-06-15 12:07:00,
2013-06-15 07:12:00,68.5,64.8,29.94,South,180,0.0,0.0,88,0.00,,,0.13,VWS V14.01,2013-06-15 12:12:00,
2013-06-15 07:17:00,68.7,64.4,29.94,South,180,0.0,0.0,86,0.00,,,0.13,VWS V14.01,2013-06-15 12:17:00,
2013-06-15 07:22:00,69.3,64.6,29.97,South,180,0.0,0.0,85,0.00,,,0.13,VWS V14.01,2013-06-15 12:22:00,
2013-06-15 07:27:00,69.4,63.7,29.97,South,180,0.0,0.0,82,0.00,,,0.13,VWS V14.01,2013-06-15 12:27:00,
2013-06-15 07:32:00,69.8,63.7,29.97,South,180,0.0,0.0,81,0.00,,,0.13,VWS V14.01,2013-06-15 12:32:00,
2013-06-15 07:37:00,69.8,63.7,29.97,South,180,0.0,0.0,81,0.00,,,0.13,VWS V14.01,2013-06-15 12:37:00,
2013-06-15 07:42:00,70.2,63.7,29.97,South,180,0.0,0.0,80,0.00,,,0.13,VWS V14.01,2013-06-15 12:42:00,
2013-06-15 07:47:00,70.2,63.7,29.97,South,180,0.0,0.0,80,0.00,,,0.13,VWS V14.01,2013-06-15 12:47:00,
2013-06-15 07:52:00,70.2,63.7,29.97,South,180,0.0,0.0,80,0.00,,,0.13,VWS V14.01,2013-06-15 12:52:00,
2013-06-15 07:57:00,70.5,64.4,29.97,South,180,0.0,0.0,81,0.00,,,0.13,VWS V14.01,2013-06-15 12:57:00,
2013-06-15 08:02:00,70.7,64.2,29.97,South,180,0.0,0.0,80,0.00,,,0.13,VWS V14.01,2013-06-15 13:02:00,
2013-06-15 08:07:00,71.6,65.1,29.97,South,180,0.0,0.0,80,0.00,,,0.13,VWS V14.01,2013-06-15 13:07:00,
2013-06-15 08:13:00,71.6,65.1,29.97,South,180,0.0,0.0,80,0.00,,,0.13,VWS V14.01,2013-06-15 13:13:00,
2013-06-15 08:18:00,72.0,62.8,29.97,South,180,0.0,3.6,73,0.00,,,0.13,VWS V14.01,2013-06-15 13:18:00,
2013-06-15 08:23:00,71.8,62.3,29.94,South,180,0.0,0.0,72,0.00,,,0.13,VWS V14.01,2013-06-15 13:23:00,
2013-06-15 08:28:00,71.6,62.1,29.94,South,180,0.0,0.0,72,0.00,,,0.13,VWS V14.01,2013-06-15 13:28:00,
2013-06-15 08:33:00,71.8,62.7,29.94,South,180,0.0,0.0,73,0.00,,,0.13,VWS V14.01,2013-06-15 13:33:00,
2013-06-15 08:38:00,71.6,62.9,29.97,South,180,0.0,0.0,74,0.00,,,0.13,VWS V14.01,2013-06-15 13:38:00,
2013-06-15 08:43:00,71.4,62.7,29.97,SSW,202,0.0,0.0,74,0.00,,,0.13,VWS V14.01,2013-06-15 13:43:00,
2013-06-15 08:48:00,71.4,62.7,29.97,SSW,202,0.0,0.0,74,0.00,,,0.13,VWS V14.01,2013-06-15 13:48:00,
2013-06-15 08:53:00,72.5,63.4,29.97,SSW,202,0.0,0.0,73,0.00,,,0.13,VWS V14.01,2013-06-15 13:53:00,
2013-06-15 08:58:00,73.2,62.9,29.97,SSW,202,0.0,0.0,70,0.00,,,0.13,VWS V14.01,2013-06-15 13:58:00,
2013-06-15 09:03:00,73.8,61.7,29.97,South,180,0.0,0.0,66,0.00,,,0.13,VWS V14.01,2013-06-15 14:03:00,
2013-06-15 09:08:00,73.8,61.3,29.97,South,180,0.0,0.0,65,0.00,,,0.13,VWS V14.01,2013-06-15 14:08:00,
2013-06-15 09:13:00,73.9,62.7,29.97,WSW,248,0.0,0.0,68,0.00,,,0.13,VWS V14.01,2013-06-15 14:13:00,
2013-06-15 09:18:00,74.5,62.0,29.97,South,180,0.0,4.0,65,0.00,,,0.13,VWS V14.01,2013-06-15 14:18:00,
2013-06-15 09:24:00,74.5,62.0,29.97,SW,225,0.0,0.0,65,0.00,,,0.13,VWS V14.01,2013-06-15 14:24:00,
2013-06-15 09:29:00,75.0,61.6,29.97,South,180,0.0,0.0,63,0.00,,,0.13,VWS V14.01,2013-06-15 14:29:00,
2013-06-15 09:34:00,74.8,61.4,29.97,South,180,0.0,0.0,63,0.00,,,0.13,VWS V14.01,2013-06-15 14:34:00,
2013-06-15 09:39:00,74.7,63.0,29.94,SSW,202,0.0,0.0,67,0.00,,,0.13,VWS V14.01,2013-06-15 14:39:00,
2013-06-15 09:44:00,74.3,63.1,29.94,SSW,202,0.0,0.0,68,0.00,,,0.13,VWS V14.01,2013-06-15 14:44:00,
2013-06-15 09:49:00,73.9,64.0,29.94,SSW,202,0.0,0.0,71,0.00,,,0.13,VWS V14.01,2013-06-15 14:49:00,
2013-06-15 09:54:00,73.9,64.8,29.97,SSW,202,0.0,0.0,73,0.00,,,0.13,VWS V14.01,2013-06-15 14:54:00,
2013-06-15 09:59:00,73.9,65.1,29.97,SSW,202,0.0,0.0,74,0.00,,,0.13,VWS V14.01,2013-06-15 14:59:00,
2013-06-15 10:04:00,74.7,66.2,29.97,SSW,202,0.0,0.0,75,0.00,,,0.13,VWS V14.01,2013-06-15 15:04:00,
2013-06-15 10:09:00,75.0,64.2,29.97,SSW,202,0.0,0.0,69,0.00,,,0.13,VWS V14.01,2013-06-15 15:09:00,
2013-06-15 10:14:00,75.9,63.8,29.97,SSW,202,0.0,0.0,66,0.00,,,0.13,VWS V14.01,2013-06-15 15:14:00,
2013-06-15 10:19:00,76.3,61.9,29.97,SSE,158,0.0,0.0,61,0.00,,,0.13,VWS V14.01,2013-06-15 15:19:00,
2013-06-15 10:24:00,76.6,61.7,29.97,SSE,158,0.0,0.0,60,0.00,,,0.13,VWS V14.01,2013-06-15 15:24:00,
2013-06-15 10:29:00,76.8,61.9,29.97,SSE,158,0.0,0.0,60,0.00,,,0.13,VWS V14.01,2013-06-15 15:29:00,
2013-06-15 10:35:00,77.5,62.6,29.97,SSE,158,0.0,0.0,60,0.00,,,0.13,VWS V14.01,2013-06-15 15:35:00,
2013-06-15 10:40:00,78.1,62.1,29.97,South,180,0.0,0.0,58,0.00,,,0.13,VWS V14.01,2013-06-15 15:40:00,
2013-06-15 10:45:00,77.9,59.9,29.97,South,180,0.0,0.0,54,0.00,,,0.13,VWS V14.01,2013-06-15 15:45:00,
2013-06-15 10:50:00,78.3,61.3,29.97,South,180,0.0,0.0,56,0.00,,,0.13,VWS V14.01,2013-06-15 15:50:00,
2013-06-15 10:55:00,78.3,61.3,29.97,South,180,0.0,0.0,56,0.00,,,0.13,VWS V14.01,2013-06-15 15:55:00,
2013-06-15 11:00:00,78.4,61.0,29.97,West,270,0.0,0.0,55,0.00,,,0.13,VWS V14.01,2013-06-15 16:00:00,
2013-06-15 11:05:00,78.8,61.3,29.97,SSW,202,0.0,0.0,55,0.00,,,0.13,VWS V14.01,2013-06-15 16:05:00,
2013-06-15 11:10:00,78.8,60.2,29.97,South,180,0.0,0.0,53,0.00,,,0.13,VWS V14.01,2013-06-15 16:10:00,
2013-06-15 11:15:00,79.0,60.4,29.97,South,180,0.0,0.0,53,0.00,,,0.13,VWS V14.01,2013-06-15 16:15:00,
2013-06-15 11:20:00,79.2,61.1,29.97,South,180,0.0,0.0,54,0.00,,,0.13,VWS V14.01,2013-06-15 16:20:00,
2013-06-15 11:25:00,79.3,59.7,29.97,South,180,0.0,0.0,51,0.00,,,0.13,VWS V14.01,2013-06-15 16:25:00,
2013-06-15 11:30:00,79.3,60.7,29.97,SSW,202,0.0,0.0,53,0.00,,,0.13,VWS V14.01,2013-06-15 16:30:00,
2013-06-15 11:35:00,79.5,61.4,29.94,SSW,202,0.0,0.0,54,0.00,,,0.13,VWS V14.01,2013-06-15 16:35:00,
2013-06-15 11:42:00,79.7,61.1,29.94,South,180,0.0,0.0,53,0.00,,,0.13,VWS V14.01,2013-06-15 16:42:00,
2013-06-15 11:47:00,80.1,60.9,29.94,SSW,202,0.0,0.0,52,0.00,,,0.13,VWS V14.01,2013-06-15 16:47:00,
2013-06-15 11:52:00,80.2,61.6,29.94,West,270,0.0,0.0,53,0.00,,,0.13,VWS V14.01,2013-06-15 16:52:00,
2013-06-15 11:57:00,80.6,60.3,29.94,South,180,5.8,5.8,50,0.00,,,0.13,VWS V14.01,2013-06-15 16:57:00,
2013-06-15 12:02:00,81.1,62.4,29.94,South,180,0.0,0.0,53,0.00,,,0.13,VWS V14.01,2013-06-15 17:02:00,
2013-06-15 12:07:00,81.1,61.3,29.97,South,180,0.0,0.0,51,0.00,,,0.13,VWS V14.01,2013-06-15 17:07:00,
2013-06-15 12:12:00,81.5,62.7,29.97,SSW,202,0.0,0.0,53,0.00,,,0.13,VWS V14.01,2013-06-15 17:12:00,
2013-06-15 12:17:00,81.5,62.2,29.97,SSW,202,0.0,0.0,52,0.00,,,0.13,VWS V14.01,2013-06-15 17:17:00,
2013-06-15 12:22:00,82.0,62.1,29.94,South,180,0.0,0.0,51,0.00,,,0.13,VWS V14.01,2013-06-15 17:22:00,
2013-06-15 12:27:00,82.4,61.9,29.94,South,180,0.0,0.0,50,0.00,,,0.13,VWS V14.01,2013-06-15 17:27:00,
2013-06-15 12:32:00,82.9,63.0,29.94,South,180,0.0,0.0,51,0.00,,,0.13,VWS V14.01,2013-06-15 17:32:00,
2013-06-15 12:37:00,82.9,62.4,29.97,South,180,0.0,0.0,50,0.00,,,0.13,VWS V14.01,2013-06-15 17:37:00,
2013-06-15 12:42:00,83.3,61.6,29.97,South,180,0.0,0.0,48,0.00,,,0.13,VWS V14.01,2013-06-15 17:42:00,
2013-06-15 12:47:00,83.3,62.2,29.97,SSW,202,0.0,0.0,49,0.00,,,0.13,VWS V14.01,2013-06-15 17:47:00,
2013-06-15 12:53:00,83.3,62.2,29.97,SSW,202,0.0,0.0,49,0.00,,,0.13,VWS V14.01,2013-06-15 17:53:00,
2013-06-15 12:58:00,83.8,63.8,29.94,South,180,0.0,0.0,51,0.00,,,0.13,VWS V14.01,2013-06-15 17:58:00,
2013-06-15 13:03:00,84.2,63.0,29.94,South,180,0.0,0.0,49,0.00,,,0.13,VWS V14.01,2013-06-15 18:03:00,
2013-06-15 13:08:00,84.4,63.7,29.94,West,270,0.0,0.0,50,0.00,,,0.13,VWS V14.01,2013-06-15 18:08:00,
2013-06-15 13:13:00,84.6,63.3,29.94,WSW,248,0.0,0.0,49,0.00,,,0.13,VWS V14.01,2013-06-15 18:13:00,
2013-06-15 13:18:00,84.9,63.7,29.94,WSW,248,0.0,0.0,49,0.00,,,0.13,VWS V14.01,2013-06-15 18:18:00,
2013-06-15 13:23:00,85.1,63.2,29.94,WSW,248,0.0,0.0,48,0.00,,,0.13,VWS V14.01,2013-06-15 18:23:00,
2013-06-15 13:28:00,85.1,63.2,29.94,WNW,292,0.0,0.0,48,0.00,,,0.13,VWS V14.01,2013-06-15 18:28:00,
2013-06-15 13:33:00,86.0,62.2,29.94,West,270,3.6,7.2,45,0.00,,,0.13,VWS V14.01,2013-06-15 18:33:00,
2013-06-15 13:38:00,86.0,62.8,29.94,SW,225,0.0,0.0,46,0.00,,,0.13,VWS V14.01,2013-06-15 18:38:00,
2013-06-15 13:43:00,86.0,62.8,29.94,West,270,0.0,0.0,46,0.00,,,0.13,VWS V14.01,2013-06-15 18:43:00,
2013-06-15 13:48:00,86.5,63.3,29.94,WNW,292,0.0,0.0,46,0.00,,,0.13,VWS V14.01,2013-06-15 18:48:00,
2013-06-15 13:53:00,86.5,63.9,29.94,WSW,248,0.0,0.0,47,0.00,,,0.13,VWS V14.01,2013-06-15 18:53:00,
2013-06-15 13:58:00,87.1,64.4,29.94,SSW,202,0.0,0.0,47,0.00,,,0.13,VWS V14.01,2013-06-15 18:58:00,
2013-06-15 14:04:00,87.1,64.4,29.94,WNW,292,0.0,0.0,47,0.00,,,0.13,VWS V14.01,2013-06-15 19:04:00,
2013-06-15 14:09:00,87.1,63.2,29.94,WNW,292,0.0,0.0,45,0.00,,,0.13,VWS V14.01,2013-06-15 19:09:00,
2013-06-15 14:14:00,87.3,63.3,29.94,WNW,292,0.0,0.0,45,0.00,,,0.13,VWS V14.01,2013-06-15 19:14:00,
2013-06-15 14:19:00,87.1,63.2,29.94,WSW,248,0.0,0.0,45,0.00,,,0.13,VWS V14.01,2013-06-15 19:19:00,
2013-06-15 14:24:00,87.3,64.6,29.94,WSW,248,0.0,0.0,47,0.00,,,0.13,VWS V14.01,2013-06-15 19:24:00,
2013-06-15 14:29:00,87.3,63.3,29.94,WSW,248,0.0,0.0,45,0.00,,,0.13,VWS V14.01,2013-06-15 19:29:00,
2013-06-15 14:34:00,87.4,63.5,29.94,WSW,248,0.0,0.0,45,0.00,,,0.13,VWS V14.01,2013-06-15 19:34:00,
2013-06-15 14:39:00,87.6,64.9,29.94,WSW,248,0.0,0.0,47,0.00,,,0.13,VWS V14.01,2013-06-15 19:39:00,
2013-06-15 14:44:00,88.2,64.8,29.94,SSW,202,0.0,0.0,46,0.00,,,0.13,VWS V14.01,2013-06-15 19:44:00,
2013-06-15 14:49:00,88.2,64.2,29.94,WSW,248,0.0,0.0,45,0.00,,,0.13,VWS V14.01,2013-06-15 19:49:00,
2013-06-15 14:54:00,87.6,63.0,29.94,SW,225,0.0,0.0,44,0.00,,,0.13,VWS V14.01,2013-06-15 19:54:00,
2013-06-15 14:59:00,87.6,64.3,29.94,West,270,0.0,0.0,46,0.00,,,0.13,VWS V14.01,2013-06-15 19:59:00,
2013-06-15 15:04:00,88.0,64.6,29.94,West,270,0.0,0.0,46,0.00,,,0.13,VWS V14.01,2013-06-15 20:04:00,
2013-06-15 15:09:00,88.3,63.7,29.94,SSW,202,0.0,0.0,44,0.00,,,0.13,VWS V14.01,2013-06-15 20:09:00,
2013-06-15 15:15:00,88.5,64.5,29.94,SSW,202,0.0,0.0,45,0.00,,,0.13,VWS V14.01,2013-06-15 20:15:00,
2013-06-15 15:20:00,88.5,64.5,29.94,SSW,202,0.0,0.0,45,0.00,,,0.13,VWS V14.01,2013-06-15 20:20:00,
2013-06-15 15:25:00,88.5,63.8,29.91,SSW,202,0.0,0.0,44,0.00,,,0.13,VWS V14.01,2013-06-15 20:25:00,
2013-06-15 15:30:00,88.7,64.0,29.91,South,180,0.0,0.0,44,0.00,,,0.13,VWS V14.01,2013-06-15 20:30:00,
2013-06-15 15:35:00,88.9,64.8,29.91,SSW,202,0.0,0.0,45,0.00,,,0.13,VWS V14.01,2013-06-15 20:35:00,
2013-06-15 15:40:00,88.7,63.3,29.91,West,270,0.0,0.0,43,0.00,,,0.13,VWS V14.01,2013-06-15 20:40:00,
2013-06-15 15:45:00,88.9,64.2,29.91,South,180,0.0,0.0,44,0.00,,,0.13,VWS V14.01,2013-06-15 20:45:00,
2013-06-15 15:50:00,88.7,64.0,29.88,South,180,0.0,0.0,44,0.00,,,0.13,VWS V14.01,2013-06-15 20:50:00,
2013-06-15 15:55:00,88.7,64.7,29.88,WNW,292,0.0,0.0,45,0.00,,,0.13,VWS V14.01,2013-06-15 20:55:00,
2013-06-15 16:00:00,88.9,64.2,29.88,WNW,292,0.0,0.0,44,0.00,,,0.13,VWS V14.01,2013-06-15 21:00:00,
2013-06-15 16:05:00,88.9,64.8,29.88,WNW,292,0.0,0.0,45,0.00,,,0.13,VWS V14.01,2013-06-15 21:05:00,
2013-06-15 16:10:00,88.7,64.7,29.88,WNW,292,0.0,0.0,45,0.00,,,0.13,VWS V14.01,2013-06-15 21:10:00,
2013-06-15 16:15:00,88.9,64.8,29.88,SSW,202,0.0,0.0,45,0.00,,,0.13,VWS V14.01,2013-06-15 21:15:00,
2013-06-15 16:20:00,89.1,64.3,29.88,WSW,248,0.0,0.0,44,0.00,,,0.13,VWS V14.01,2013-06-15 21:20:00,
2013-06-15 16:25:00,89.2,63.2,29.88,WSW,248,0.0,0.0,42,0.00,,,0.13,VWS V14.01,2013-06-15 21:25:00,
2013-06-15 16:34:00,89.2,62.5,29.88,West,270,0.0,0.0,41,0.00,,,0.13,VWS V14.01,2013-06-15 21:34:00,
2013-06-15 16:39:00,88.5,61.1,29.91,West,270,0.0,0.0,40,0.00,,,0.13,VWS V14.01,2013-06-15 21:39:00,
2013-06-15 16:44:00,88.3,62.4,29.91,West,270,0.0,0.0,42,0.00,,,0.13,VWS V14.01,2013-06-15 21:44:00,
2013-06-15 16:49:00,88.2,61.5,29.91,West,270,0.0,0.0,41,0.00,,,0.13,VWS V14.01,2013-06-15 21:49:00,
2013-06-15 16:54:00,88.0,62.0,29.88,West,270,0.0,0.0,42,0.00,,,0.13,VWS V14.01,2013-06-15 21:54:00,
2013-06-15 16:59:00,87.8,61.9,29.88,West,270,0.0,0.0,42,0.00,,,0.13,VWS V14.01,2013-06-15 21:59:00,
2013-06-15 17:04:00,87.6,62.4,29.88,West,270,0.0,0.0,43,0.00,,,0.13,VWS V14.01,2013-06-15 22:04:00,
2013-06-15 17:10:00,87.4,62.9,29.88,West,270,0.0,0.0,44,0.00,,,0.13,VWS V14.01,2013-06-15 22:10:00,
2013-06-15 17:15:00,87.3,62.7,29.88,West,270,0.0,0.0,44,0.00,,,0.13,VWS V14.01,2013-06-15 22:15:00,
2013-06-15 17:20:00,87.1,62.5,29.88,West,270,0.0,0.0,44,0.00,,,0.13,VWS V14.01,2013-06-15 22:20:00,
2013-06-15 17:25:00,86.9,63.0,29.88,West,270,0.0,0.0,45,0.00,,,0.13,VWS V14.01,2013-06-15 22:25:00,
2013-06-15 17:30:00,86.5,63.3,29.88,West,270,0.0,0.0,46,0.00,,,0.13,VWS V14.01,2013-06-15 22:30:00,
2013-06-15 17:35:00,86.0,62.8,29.88,West,270,0.0,0.0,46,0.00,,,0.13,VWS V14.01,2013-06-15 22:35:00,
2013-06-15 17:40:00,85.8,63.3,29.88,West,270,0.0,0.0,47,0.00,,,0.13,VWS V14.01,2013-06-15 22:40:00,
2013-06-15 17:45:00,85.8,63.3,29.88,West,270,0.0,0.0,47,0.00,,,0.13,VWS V14.01,2013-06-15 22:45:00,
2013-06-15 17:50:00,85.3,63.4,29.91,West,270,0.0,0.0,48,0.00,,,0.13,VWS V14.01,2013-06-15 22:50:00,
2013-06-15 17:55:00,85.1,63.2,29.91,West,270,0.0,0.0,48,0.00,,,0.13,VWS V14.01,2013-06-15 22:55:00,
2013-06-15 18:00:00,84.7,63.5,29.91,West,270,0.0,0.0,49,0.00,,,0.13,VWS V14.01,2013-06-15 23:00:00,
2013-06-15 18:05:00,84.2,63.6,29.91,SW,225,0.0,0.0,50,0.00,,,0.13,VWS V14.01,2013-06-15 23:05:00,
2013-06-15 18:10:00,83.8,63.8,29.91,West,270,0.0,0.0,51,0.00,,,0.13,VWS V14.01,2013-06-15 23:10:00,
2013-06-15 18:15:00,83.5,64.6,29.91,West,270,0.0,0.0,53,0.00,,,0.13,VWS V14.01,2013-06-15 23:15:00,
2013-06-15 18:20:00,82.9,65.1,29.88,West,270,0.0,0.0,55,0.00,,,0.13,VWS V14.01,2013-06-15 23:20:00,
2013-06-15 18:25:00,82.4,65.1,29.88,West,270,0.0,0.0,56,0.00,,,0.13,VWS V14.01,2013-06-15 23:25:00,
2013-06-15 18:30:00,82.0,65.3,29.88,West,270,0.0,0.0,57,0.00,,,0.13,VWS V14.01,2013-06-15 23:30:00,
2013-06-15 18:35:00,81.7,66.0,29.88,West,270,0.0,0.0,59,0.00,,,0.13,VWS V14.01,2013-06-15 23:35:00,
2013-06-15 18:40:00,81.1,65.9,29.88,West,270,0.0,0.0,60,0.00,,,0.13,VWS V14.01,2013-06-15 23:40:00,
2013-06-15 18:45:00,80.8,66.6,29.88,West,270,0.0,0.0,62,0.00,,,0.13,VWS V14.01,2013-06-15 23:45:00,
2013-06-15 18:50:00,80.8,67.0,29.91,West,270,0.0,0.0,63,0.00,,,0.13,VWS V14.01,2013-06-15 23:50:00,
2013-06-15 18:57:00,80.2,67.4,29.91,West,270,0.0,0.0,65,0.00,,,0.13,VWS V14.01,2013-06-15 23:57:00,
2013-06-15 19:02:00,79.9,67.9,29.91,West,270,0.0,0.0,67,0.00,,,0.13,VWS V14.01,2013-06-16 00:02:00,
2013-06-15 19:07:00,79.0,69.2,29.91,WSW,248,0.0,0.0,72,0.00,,,0.13,VWS V14.01,2013-06-16 00:07:00,
2013-06-15 19:12:00,78.6,70.8,29.91,WSW,248,0.0,0.0,77,0.00,,,0.13,VWS V14.01,2013-06-16 00:12:00,
2013-06-15 19:17:00,78.3,72.3,29.91,NW,315,5.8,8.7,82,0.00,,,0.13,VWS V14.01,2013-06-16 00:17:00,
2013-06-15 19:22:00,73.4,62.6,29.94,WNW,292,9.2,11.9,69,0.00,,,0.13,VWS V14.01,2013-06-16 00:22:00,
2013-06-15 19:27:00,71.6,64.0,29.94,West,270,5.8,7.2,77,0.04,,,0.17,VWS V14.01,2013-06-16 00:27:00,
2013-06-15 19:32:00,71.6,64.0,29.94,WSW,248,5.4,5.8,77,0.04,,,0.17,VWS V14.01,2013-06-16 00:32:00,
2013-06-15 19:37:00,68.9,63.5,29.97,NNW,338,3.6,6.3,83,0.04,,,0.17,VWS V14.01,2013-06-16 00:37:00,
2013-06-15 19:42:00,68.4,63.7,29.97,West,270,7.6,7.6,85,0.04,,,0.17,VWS V14.01,2013-06-16 00:42:00,
2013-06-15 19:47:00,68.4,64.3,29.97,WNW,292,6.3,6.3,87,0.04,,,0.17,VWS V14.01,2013-06-16 00:47:00,
2013-06-15 19:52:00,68.4,64.7,29.97,WSW,248,5.8,5.8,88,0.04,,,0.17,VWS V14.01,2013-06-16 00:52:00,
2013-06-15 19:57:00,68.7,66.0,29.97,NNW,338,5.4,5.4,91,0.04,,,0.17,VWS V14.01,2013-06-16 00:57:00,
2013-06-15 20:02:00,68.5,66.4,29.97,WNW,292,4.0,7.6,93,0.04,,,0.17,VWS V14.01,2013-06-16 01:02:00,
2013-06-15 20:07:00,68.5,66.4,29.97,WNW,292,5.4,7.6,93,0.04,,,0.17,VWS V14.01,2013-06-16 01:07:00,
2013-06-15 20:12:00,68.2,65.1,30.00,WSW,248,8.7,8.7,90,0.04,,,0.17,VWS V14.01,2013-06-16 01:12:00,
2013-06-15 20:17:00,68.2,65.1,30.00,WSW,248,6.3,6.3,90,0.04,,,0.17,VWS V14.01,2013-06-16 01:17:00,
2013-06-15 20:22:00,68.2,65.1,30.03,West,270,4.5,4.5,90,0.04,,,0.17,VWS V14.01,2013-06-16 01:22:00,
2013-06-15 20:27:00,68.2,65.1,30.03,WNW,292,0.0,0.0,90,0.04,,,0.21,VWS V14.01,2013-06-16 01:27:00,
2013-06-15 20:32:00,68.2,65.1,30.03,WSW,248,0.0,0.0,90,0.04,,,0.21,VWS V14.01,2013-06-16 01:32:00,
2013-06-15 20:37:00,68.4,65.6,30.03,WNW,292,0.0,0.0,91,0.04,,,0.21,VWS V14.01,2013-06-16 01:37:00,
2013-06-15 20:43:00,68.4,65.6,30.03,WNW,292,0.0,0.0,91,0.04,,,0.21,VWS V14.01,2013-06-16 01:43:00,
2013-06-15 20:48:00,68.4,66.3,30.03,WNW,292,0.0,0.0,93,0.08,,,0.25,VWS V14.01,2013-06-16 01:48:00,
2013-06-15 20:53:00,68.2,66.1,30.00,WNW,292,0.0,0.0,93,0.08,,,0.25,VWS V14.01,2013-06-16 01:53:00,
2013-06-15 20:58:00,68.2,66.1,30.00,WNW,292,0.0,0.0,93,0.08,,,0.25,VWS V14.01,2013-06-16 01:58:00,
2013-06-15 21:03:00,68.2,66.4,30.00,WNW,292,0.0,0.0,94,0.08,,,0.25,VWS V14.01,2013-06-16 02:03:00,
2013-06-15 21:08:00,68.2,66.4,30.00,WNW,292,0.0,0.0,94,0.08,,,0.25,VWS V14.01,2013-06-16 02:08:00,
2013-06-15 21:13:00,68.4,66.6,30.00,NNE,22,0.0,0.0,94,0.08,,,0.25,VWS V14.01,2013-06-16 02:13:00,
2013-06-15 21:18:00,68.4,66.6,30.00,NNE,22,0.0,0.0,94,0.08,,,0.25,VWS V14.01,2013-06-16 02:18:00,
2013-06-15 21:23:00,68.4,66.9,29.97,NNE,22,0.0,0.0,95,0.08,,,0.25,VWS V14.01,2013-06-16 02:23:00,
2013-06-15 21:28:00,68.4,66.9,29.97,NNE,22,0.0,0.0,95,0.04,,,0.25,VWS V14.01,2013-06-16 02:28:00,
2013-06-15 21:33:00,68.4,66.9,29.97,NNE,22,0.0,0.0,95,0.04,,,0.25,VWS V14.01,2013-06-16 02:33:00,
2013-06-15 21:38:00,68.4,66.9,29.97,NNE,22,0.0,0.0,95,0.04,,,0.25,VWS V14.01,2013-06-16 02:38:00,
2013-06-15 21:43:00,68.4,66.9,29.97,NNE,22,0.0,0.0,95,0.04,,,0.25,VWS V14.01,2013-06-16 02:43:00,
2013-06-15 21:48:00,68.4,66.9,29.97,NNE,22,0.0,0.0,95,0.04,,,0.29,VWS V14.01,2013-06-16 02:48:00,
2013-06-15 21:54:00,68.4,66.9,29.97,NNE,22,0.0,0.0,95,0.04,,,0.29,VWS V14.01,2013-06-16 02:54:00,
2013-06-15 21:59:00,68.7,67.2,30.00,East,90,0.0,0.0,95,0.04,,,0.29,VWS V14.01,2013-06-16 02:59:00,
2013-06-15 22:04:00,68.7,67.2,30.00,East,90,0.0,0.0,95,0.04,,,0.29,VWS V14.01,2013-06-16 03:04:00,
2013-06-15 22:09:00,68.7,67.5,30.00,NE,45,0.0,0.0,96,0.04,,,0.29,VWS V14.01,2013-06-16 03:09:00,
2013-06-15 22:14:00,68.7,67.5,30.00,NE,45,0.0,0.0,96,0.04,,,0.29,VWS V14.01,2013-06-16 03:14:00,
2013-06-15 22:19:00,68.9,67.7,30.00,NE,45,0.0,0.0,96,0.04,,,0.29,VWS V14.01,2013-06-16 03:19:00,
2013-06-15 22:24:00,68.9,67.7,30.00,ENE,68,0.0,0.0,96,0.04,,,0.29,VWS V14.01,2013-06-16 03:24:00,
2013-06-15 22:29:00,68.9,67.7,30.00,NE,45,0.0,0.0,96,0.04,,,0.29,VWS V14.01,2013-06-16 03:29:00,
2013-06-15 22:34:00,68.9,67.7,30.00,ENE,68,0.0,0.0,96,0.04,,,0.29,VWS V14.01,2013-06-16 03:34:00,
2013-06-15 22:39:00,69.1,67.9,30.00,ENE,68,0.0,0.0,96,0.04,,,0.29,VWS V14.01,2013-06-16 03:39:00,
2013-06-15 22:44:00,69.1,67.9,30.00,ENE,68,0.0,0.0,96,0.04,,,0.29,VWS V14.01,2013-06-16 03:44:00,
2013-06-15 22:49:00,69.1,67.9,30.00,ENE,68,0.0,0.0,96,0.00,,,0.29,VWS V14.01,2013-06-16 03:49:00,
2013-06-15 22:54:00,69.1,67.9,30.00,ENE,68,0.0,0.0,96,0.00,,,0.29,VWS V14.01,2013-06-16 03:54:00,
2013-06-15 22:59:00,69.1,67.9,30.00,ENE,68,0.0,0.0,96,0.00,,,0.29,VWS V14.01,2013-06-16 03:59:00,
2013-06-15 23:01:00,69.1,67.9,30.00,ENE,68,0.0,0.0,96,0.00,,,0.29,VWS V14.01,2013-06-16 04:01:00,
2013-06-15 23:06:00,69.1,67.9,30.03,ENE,68,0.0,0.0,96,0.00,,,0.29,VWS V14.01,2013-06-16 04:06:00,
2013-06-15 23:11:00,69.1,67.9,30.03,ENE,68,0.0,0.0,96,0.00,,,0.29,VWS V14.01,2013-06-16 04:11:00,
2013-06-15 23:16:00,69.1,67.9,30.03,ENE,68,0.0,0.0,96,0.00,,,0.29,VWS V14.01,2013-06-16 04:16:00,
2013-06-15 23:21:00,69.1,67.9,30.00,ENE,68,0.0,0.0,96,0.00,,,0.29,VWS V14.01,2013-06-16 04:21:00,
2013-06-15 23:26:00,69.1,67.9,30.00,ENE,68,0.0,0.0,96,0.00,,,0.29,VWS V14.01,2013-06-16 04:26:00,
2013-06-15 23:31:00,69.1,67.9,30.00,ENE,68,0.0,0.0,96,0.00,,,0.29,VWS V14.01,2013-06-16 04:31:00,
2013-06-15 23:36:00,69.1,67.9,30.00,ENE,68,0.0,0.0,96,0.00,,,0.29,VWS V14.01,2013-06-16 04:36:00,
2013-06-15 23:41:00,69.1,67.9,30.00,ENE,68,0.0,0.0,96,0.00,,,0.29,VWS V14.01,2013-06-16 04:41:00,
2013-06-15 23:46:00,69.3,68.1,30.00,ENE,68,0.0,0.0,96,0.00,,,0.29,VWS V14.01,2013-06-16 04:46:00,
2013-06-15 23:51:00,69.1,67.9,30.00,ENE,68,0.0,0.0,96,0.00,,,0.29,VWS V14.01,2013-06-16 04:51:00,
2013-06-15 23:56:00,69.3,68.1,30.00,ENE,68,0.0,0.0,96,0.00,,,0.29,VWS V14.01,2013-06-16 04:56:00,